You are listening to:
EPBY Tower - Bydgoszcz, Poland

EPBY 101000Z 20013KT 9999 FEW013 09/03 Q1009

If stream doesn't start automatically press the play button
If stream stops then reload player then press play